sensor_id;sensor_type;location;lat;lon;timestamp;temperature;humidity
19172;DHT22;9718;52.200;21.052;2022-09-20T00:06:55;10.30;99.90
19172;DHT22;9718;52.200;21.052;2022-09-20T00:09:22;10.30;99.90
19172;DHT22;9718;52.200;21.052;2022-09-20T00:11:48;10.30;99.90
19172;DHT22;9718;52.200;21.052;2022-09-20T00:14:14;10.20;99.90
19172;DHT22;9718;52.200;21.052;2022-09-20T00:16:40;10.20;99.90
19172;DHT22;9718;52.200;21.052;2022-09-20T00:19:08;10.20;99.90
19172;DHT22;9718;52.200;21.052;2022-09-20T00:21:34;10.10;99.90
19172;DHT22;9718;52.200;21.052;2022-09-20T00:24:17;10.10;99.90
19172;DHT22;9718;52.200;21.052;2022-09-20T00:26:43;10.20;99.90
19172;DHT22;9718;52.200;21.052;2022-09-20T00:39:46;10.20;99.90
19172;DHT22;9718;52.200;21.052;2022-09-20T00:42:14;10.20;99.90
19172;DHT22;9718;52.200;21.052;2022-09-20T00:44:46;10.10;99.90
19172;DHT22;9718;52.200;21.052;2022-09-20T00:47:35;10.10;99.90
19172;DHT22;9718;52.200;21.052;2022-09-20T00:52:58;10.00;99.90
19172;DHT22;9718;52.200;21.052;2022-09-20T00:55:27;9.90;99.90
19172;DHT22;9718;52.200;21.052;2022-09-20T00:58:09;9.80;99.90
19172;DHT22;9718;52.200;21.052;2022-09-20T01:03:23;9.80;99.90
19172;DHT22;9718;52.200;21.052;2022-09-20T01:05:52;9.80;99.90
19172;DHT22;9718;52.200;21.052;2022-09-20T01:08:20;9.80;99.90
19172;DHT22;9718;52.200;21.052;2022-09-20T01:10:50;9.70;99.90
19172;DHT22;9718;52.200;21.052;2022-09-20T01:13:16;9.70;99.90
19172;DHT22;9718;52.200;21.052;2022-09-20T01:15:44;9.70;99.90
19172;DHT22;9718;52.200;21.052;2022-09-20T01:18:11;9.70;99.90
19172;DHT22;9718;52.200;21.052;2022-09-20T01:20:40;9.70;99.90
19172;DHT22;9718;52.200;21.052;2022-09-20T01:28:34;9.70;99.90
19172;DHT22;9718;52.200;21.052;2022-09-20T01:36:06;9.70;99.90
19172;DHT22;9718;52.200;21.052;2022-09-20T01:41:09;9.70;99.90
19172;DHT22;9718;52.200;21.052;2022-09-20T02:13:03;9.60;99.90
19172;DHT22;9718;52.200;21.052;2022-09-20T02:26:20;9.50;99.90
19172;DHT22;9718;52.200;21.052;2022-09-20T02:43:29;9.40;99.90
19172;DHT22;9718;52.200;21.052;2022-09-20T03:02:27;9.60;99.90
19172;DHT22;9718;52.200;21.052;2022-09-20T03:05:08;9.60;99.90
19172;DHT22;9718;52.200;21.052;2022-09-20T03:08:00;9.70;99.90
19172;DHT22;9718;52.200;21.052;2022-09-20T03:17:31;9.50;99.90
19172;DHT22;9718;52.200;21.052;2022-09-20T03:25:55;9.60;99.90
19172;DHT22;9718;52.200;21.052;2022-09-20T03:32:03;9.70;99.90
19172;DHT22;9718;52.200;21.052;2022-09-20T03:35:44;9.60;99.90
19172;DHT22;9718;52.200;21.052;2022-09-20T03:38:33;9.70;99.90
19172;DHT22;9718;52.200;21.052;2022-09-20T03:50:06;9.70;99.90
19172;DHT22;9718;52.200;21.052;2022-09-20T03:59:30;9.80;99.90
19172;DHT22;9718;52.200;21.052;2022-09-20T04:05:27;9.70;99.90
19172;DHT22;9718;52.200;21.052;2022-09-20T04:16:33;9.70;99.90
19172;DHT22;9718;52.200;21.052;2022-09-20T04:19:16;9.80;99.90
19172;DHT22;9718;52.200;21.052;2022-09-20T04:21:56;9.70;99.90
19172;DHT22;9718;52.200;21.052;2022-09-20T04:24:48;9.80;99.90
19172;DHT22;9718;52.200;21.052;2022-09-20T04:27:40;9.70;99.90
19172;DHT22;9718;52.200;21.052;2022-09-20T04:30:22;9.80;99.90
19172;DHT22;9718;52.200;21.052;2022-09-20T04:32:55;9.80;99.90
19172;DHT22;9718;52.200;21.052;2022-09-20T04:35:54;9.80;99.90
19172;DHT22;9718;52.200;21.052;2022-09-20T04:38:40;9.80;99.90
19172;DHT22;9718;52.200;21.052;2022-09-20T05:00:07;9.80;99.90
19172;DHT22;9718;52.200;21.052;2022-09-20T05:06:08;9.90;99.90
19172;DHT22;9718;52.200;21.052;2022-09-20T05:08:48;9.90;99.90
19172;DHT22;9718;52.200;21.052;2022-09-20T05:11:46;9.90;99.90
19172;DHT22;9718;52.200;21.052;2022-09-20T05:27:51;10.10;99.90
19172;DHT22;9718;52.200;21.052;2022-09-20T05:33:22;10.20;99.90
19172;DHT22;9718;52.200;21.052;2022-09-20T05:36:10;10.20;99.90
19172;DHT22;9718;52.200;21.052;2022-09-20T05:38:55;10.30;99.90
19172;DHT22;9718;52.200;21.052;2022-09-20T05:41:51;10.40;99.90
19172;DHT22;9718;52.200;21.052;2022-09-20T06:08:17;10.40;99.90
19172;DHT22;9718;52.200;21.052;2022-09-20T06:13:53;10.50;99.90
19172;DHT22;9718;52.200;21.052;2022-09-20T06:16:34;10.60;99.90
19172;DHT22;9718;52.200;21.052;2022-09-20T06:19:17;10.70;99.90
19172;DHT22;9718;52.200;21.052;2022-09-20T06:21:51;10.70;99.90
19172;DHT22;9718;52.200;21.052;2022-09-20T06:24:31;10.60;99.90
19172;DHT22;9718;52.200;21.052;2022-09-20T06:27:04;10.50;99.90
19172;DHT22;9718;52.200;21.052;2022-09-20T07:21:31;11.20;99.90
19172;DHT22;9718;52.200;21.052;2022-09-20T07:23:57;11.10;99.90
19172;DHT22;9718;52.200;21.052;2022-09-20T07:26:26;11.20;99.90
19172;DHT22;9718;52.200;21.052;2022-09-20T07:28:54;11.10;99.90
19172;DHT22;9718;52.200;21.052;2022-09-20T07:31:23;10.90;99.90
19172;DHT22;9718;52.200;21.052;2022-09-20T07:33:52;10.70;99.90
19172;DHT22;9718;52.200;21.052;2022-09-20T07:36:18;10.60;99.90
19172;DHT22;9718;52.200;21.052;2022-09-20T07:38:49;10.60;99.90
19172;DHT22;9718;52.200;21.052;2022-09-20T07:41:15;10.90;99.90
19172;DHT22;9718;52.200;21.052;2022-09-20T07:43:56;10.80;99.90
19172;DHT22;9718;52.200;21.052;2022-09-20T07:46:42;11.00;99.90
19172;DHT22;9718;52.200;21.052;2022-09-20T07:49:10;10.90;99.90
19172;DHT22;9718;52.200;21.052;2022-09-20T07:51:37;11.00;99.90
19172;DHT22;9718;52.200;21.052;2022-09-20T07:54:03;11.00;99.90
19172;DHT22;9718;52.200;21.052;2022-09-20T07:56:29;11.10;99.90
19172;DHT22;9718;52.200;21.052;2022-09-20T07:58:56;11.20;99.90
19172;DHT22;9718;52.200;21.052;2022-09-20T08:01:22;11.30;99.90
19172;DHT22;9718;52.200;21.052;2022-09-20T08:06:23;11.30;99.90
19172;DHT22;9718;52.200;21.052;2022-09-20T08:08:50;11.40;99.90
19172;DHT22;9718;52.200;21.052;2022-09-20T08:11:18;11.40;99.90
19172;DHT22;9718;52.200;21.052;2022-09-20T08:13:48;11.20;99.90
19172;DHT22;9718;52.200;21.052;2022-09-20T08:16:42;11.40;99.90
19172;DHT22;9718;52.200;21.052;2022-09-20T08:19:14;11.60;99.90
19172;DHT22;9718;52.200;21.052;2022-09-20T08:21:41;11.90;99.90
19172;DHT22;9718;52.200;21.052;2022-09-20T08:24:47;12.00;99.90
19172;DHT22;9718;52.200;21.052;2022-09-20T08:29:52;12.10;99.90
19172;DHT22;9718;52.200;21.052;2022-09-20T08:32:21;12.10;99.90
19172;DHT22;9718;52.200;21.052;2022-09-20T08:34:47;12.30;99.90
19172;DHT22;9718;52.200;21.052;2022-09-20T08:37:15;12.30;99.90
19172;DHT22;9718;52.200;21.052;2022-09-20T08:39:41;12.20;99.90
19172;DHT22;9718;52.200;21.052;2022-09-20T08:42:30;11.80;99.90
19172;DHT22;9718;52.200;21.052;2022-09-20T08:45:31;11.80;99.90
19172;DHT22;9718;52.200;21.052;2022-09-20T08:48:04;11.80;99.90
19172;DHT22;9718;52.200;21.052;2022-09-20T08:50:32;12.20;99.90
19172;DHT22;9718;52.200;21.052;2022-09-20T08:53:13;12.30;99.90
19172;DHT22;9718;52.200;21.052;2022-09-20T08:55:39;12.20;99.90
19172;DHT22;9718;52.200;21.052;2022-09-20T08:58:10;12.30;99.90
19172;DHT22;9718;52.200;21.052;2022-09-20T09:00:38;12.40;99.90
19172;DHT22;9718;52.200;21.052;2022-09-20T09:03:11;12.20;99.90
19172;DHT22;9718;52.200;21.052;2022-09-20T09:05:47;11.90;99.90
19172;DHT22;9718;52.200;21.052;2022-09-20T09:08:26;12.00;99.90
19172;DHT22;9718;52.200;21.052;2022-09-20T09:11:01;12.00;99.90
19172;DHT22;9718;52.200;21.052;2022-09-20T09:15:41;11.90;99.90
19172;DHT22;9718;52.200;21.052;2022-09-20T09:18:10;11.50;99.90
19172;DHT22;9718;52.200;21.052;2022-09-20T09:20:40;11.60;99.90
19172;DHT22;9718;52.200;21.052;2022-09-20T09:23:22;11.60;99.90
19172;DHT22;9718;52.200;21.052;2022-09-20T09:25:53;11.70;99.90
19172;DHT22;9718;52.200;21.052;2022-09-20T09:28:23;11.60;99.90
19172;DHT22;9718;52.200;21.052;2022-09-20T09:30:50;11.40;99.90
19172;DHT22;9718;52.200;21.052;2022-09-20T09:33:31;11.30;99.90
19172;DHT22;9718;52.200;21.052;2022-09-20T09:38:18;11.40;99.90
19172;DHT22;9718;52.200;21.052;2022-09-20T09:41:29;11.80;99.90
19172;DHT22;9718;52.200;21.052;2022-09-20T09:44:31;11.80;99.90
19172;DHT22;9718;52.200;21.052;2022-09-20T09:47:52;11.80;99.90
19172;DHT22;9718;52.200;21.052;2022-09-20T09:51:09;11.70;99.90
19172;DHT22;9718;52.200;21.052;2022-09-20T09:54:18;11.80;99.90
19172;DHT22;9718;52.200;21.052;2022-09-20T10:47:33;14.10;99.90
19172;DHT22;9718;52.200;21.052;2022-09-20T11:04:51;14.00;99.90
19172;DHT22;9718;52.200;21.052;2022-09-20T11:17:10;15.10;99.90
19172;DHT22;9718;52.200;21.052;2022-09-20T11:20:05;15.20;99.90
19172;DHT22;9718;52.200;21.052;2022-09-20T11:22:49;15.20;99.90
19172;DHT22;9718;52.200;21.052;2022-09-20T11:25:44;14.90;99.90
19172;DHT22;9718;52.200;21.052;2022-09-20T11:28:35;14.70;99.90
19172;DHT22;9718;52.200;21.052;2022-09-20T12:49:34;16.10;99.90
19172;DHT22;9718;52.200;21.052;2022-09-20T12:52:26;15.50;99.90
19172;DHT22;9718;52.200;21.052;2022-09-20T13:05:40;16.80;99.90
19172;DHT22;9718;52.200;21.052;2022-09-20T13:08:14;16.80;99.90
19172;DHT22;9718;52.200;21.052;2022-09-20T13:52:55;14.70;99.90
19172;DHT22;9718;52.200;21.052;2022-09-20T14:01:00;13.20;99.90
19172;DHT22;9718;52.200;21.052;2022-09-20T22:01:18;10.40;99.90
19172;DHT22;9718;52.200;21.052;2022-09-20T22:03:48;10.40;99.90
19172;DHT22;9718;52.200;21.052;2022-09-20T22:19:18;10.40;99.90
19172;DHT22;9718;52.200;21.052;2022-09-20T22:21:59;10.50;99.90
19172;DHT22;9718;52.200;21.052;2022-09-20T22:24:32;10.50;99.90
19172;DHT22;9718;52.200;21.052;2022-09-20T22:26:59;10.60;99.90
19172;DHT22;9718;52.200;21.052;2022-09-20T22:29:25;10.70;99.90
19172;DHT22;9718;52.200;21.052;2022-09-20T22:31:53;10.80;99.90
19172;DHT22;9718;52.200;21.052;2022-09-20T22:34:21;10.80;99.90
19172;DHT22;9718;52.200;21.052;2022-09-20T22:36:48;10.70;99.90
19172;DHT22;9718;52.200;21.052;2022-09-20T22:39:15;10.60;99.90
19172;DHT22;9718;52.200;21.052;2022-09-20T22:41:49;10.60;99.90
19172;DHT22;9718;52.200;21.052;2022-09-20T22:58:58;10.70;99.90
19172;DHT22;9718;52.200;21.052;2022-09-20T23:01:54;10.80;99.90
19172;DHT22;9718;52.200;21.052;2022-09-20T23:04:21;10.70;99.90
19172;DHT22;9718;52.200;21.052;2022-09-20T23:06:50;10.70;99.90
19172;DHT22;9718;52.200;21.052;2022-09-20T23:09:23;10.70;99.90
19172;DHT22;9718;52.200;21.052;2022-09-20T23:11:50;10.70;99.90
19172;DHT22;9718;52.200;21.052;2022-09-20T23:14:19;10.80;99.90
19172;DHT22;9718;52.200;21.052;2022-09-20T23:17:00;10.90;99.90
19172;DHT22;9718;52.200;21.052;2022-09-20T23:19:44;10.90;99.90
19172;DHT22;9718;52.200;21.052;2022-09-20T23:22:10;10.80;99.90
19172;DHT22;9718;52.200;21.052;2022-09-20T23:39:52;10.60;99.90
19172;DHT22;9718;52.200;21.052;2022-09-20T23:42:18;10.70;99.90
19172;DHT22;9718;52.200;21.052;2022-09-20T23:44:48;10.60;99.90
19172;DHT22;9718;52.200;21.052;2022-09-20T23:47:15;10.60;99.90
19172;DHT22;9718;52.200;21.052;2022-09-20T23:49:41;10.50;99.90
19172;DHT22;9718;52.200;21.052;2022-09-20T23:52:07;10.50;99.90
19172;DHT22;9718;52.200;21.052;2022-09-20T23:54:34;10.70;99.90
19172;DHT22;9718;52.200;21.052;2022-09-20T23:57:00;10.60;99.90
19172;DHT22;9718;52.200;21.052;2022-09-20T23:59:26;10.60;99.90
